Time;durP1;ratioP1;P1;durP2;ratioP2;P2;SDS_P1;SDS_P2;PMS_P1;PMS_P2;Temp;Humidity;BMP_temperature;BMP_pressure;BME280_temperature;BME280_humidity;BME280_pressure;Samples;Min_cycle;Max_cycle;Signal;HPM_P1;HPM_P2
2023/05/18 00:00:38;;;;;;;0.28;0.25;;;;;;;9.15;56.45;102245.28;15634128;28;20559;-49
2023/05/18 00:08:11;;;;;;;7.65;0.88;;;;;;;9.12;56.45;102242.94;15657068;28;20455;-47
2023/05/18 00:15:46;;;;;;;0.23;0.23;;;;;;;9.17;56.39;102252.13;15636891;28;20045;-49
2023/05/18 00:23:23;;;;;;;1.08;0.60;;;;;;;9.17;56.60;102248.63;15655285;28;20045;-50
2023/05/18 00:31:05;;;;;;;0.22;0.22;;;;;;;9.05;56.42;102250.78;15622196;28;20049;-48
2023/05/18 00:38:46;;;;;;;0.30;0.30;;;;;;;9.14;56.30;102254.34;15612616;28;20115;-51
2023/05/18 00:46:20;;;;;;;0.65;0.25;;;;;;;9.04;56.38;102265.16;15600971;28;20129;-46
2023/05/18 00:53:54;;;;;;;0.00;0.00;;;;;;;9.22;55.59;102269.56;15610887;28;20276;-47
2023/05/18 01:01:30;;;;;;;1.45;1.08;;;;;;;9.04;56.27;102267.84;15604598;28;20048;-46
2023/05/18 01:09:06;;;;;;;6.35;0.47;;;;;;;9.19;55.76;102276.09;15597467;28;20049;-47
2023/05/18 01:16:44;;;;;;;0.98;0.65;;;;;;;8.99;56.85;102291.59;15621008;28;20060;-48
2023/05/18 01:24:25;;;;;;;0.10;0.08;;;;;;;9.10;56.43;102287.81;15612752;28;20099;-49
2023/05/18 01:31:59;;;;;;;0.10;0.10;;;;;;;8.97;57.46;102288.25;15638027;23;20071;-47
2023/05/18 01:39:35;;;;;;;0.00;0.00;;;;;;;8.80;58.11;102289.16;15631077;28;20113;-48
2023/05/18 01:47:13;;;;;;;0.53;0.30;;;;;;;8.82;58.26;102287.19;15646992;28;20200;-50
2023/05/18 01:54:50;;;;;;;0.20;0.20;;;;;;;8.94;57.13;102292.06;15627365;28;20122;-51
2023/05/18 02:02:24;;;;;;;1.02;0.45;;;;;;;8.68;58.98;102296.66;15647943;28;20452;-49
2023/05/18 02:09:58;;;;;;;0.08;0.08;;;;;;;8.63;58.19;102297.13;15645152;28;20033;-50
2023/05/18 02:17:33;;;;;;;0.77;0.53;;;;;;;8.55;58.96;102299.75;15631906;28;20037;-54
2023/05/18 02:25:06;;;;;;;0.68;0.40;;;;;;;8.30;59.69;102288.06;15631233;28;20037;-50
2023/05/18 02:32:45;;;;;;;3.10;0.88;;;;;;;8.26;60.04;102307.25;15633362;28;20049;-53
2023/05/18 02:40:19;;;;;;;0.55;0.32;;;;;;;8.17;60.09;102301.81;15642630;28;20452;-51
2023/05/18 02:47:55;;;;;;;1.70;0.70;;;;;;;8.29;59.61;102307.75;15640668;28;20059;-52
2023/05/18 02:55:30;;;;;;;4.57;0.55;;;;;;;8.12;60.63;102317.50;15639034;28;20053;-52
2023/05/18 03:03:16;;;;;;;0.40;0.40;;;;;;;8.05;60.77;102316.44;15655768;28;20040;-52
2023/05/18 03:10:51;;;;;;;0.22;0.20;;;;;;;7.93;61.34;102326.53;15653928;28;20041;-52
2023/05/18 03:18:28;;;;;;;0.32;0.32;;;;;;;8.03;60.61;102322.94;15655654;28;20080;-49
2023/05/18 03:26:02;;;;;;;1.55;0.40;;;;;;;7.87;61.27;102316.44;15654480;28;20044;-48
2023/05/18 03:33:39;;;;;;;1.10;0.30;;;;;;;8.12;60.33;102319.34;15655755;28;20045;-52
2023/05/18 03:41:14;;;;;;;0.95;0.50;;;;;;;8.18;60.33;102332.09;15638888;28;20413;-53
2023/05/18 03:48:50;;;;;;;0.10;0.10;;;;;;;8.01;61.93;102330.25;15636875;28;20405;-53
2023/05/18 03:56:30;;;;;;;0.20;0.20;;;;;;;8.24;61.30;102331.44;15636282;28;20075;-53
2023/05/18 04:04:06;;;;;;;0.30;0.30;;;;;;;8.20;62.02;102340.78;15654012;28;20044;-48
2023/05/18 04:11:39;;;;;;;4.32;1.02;;;;;;;8.33;62.27;102351.09;15653986;28;20516;-48
2023/05/18 04:19:13;;;;;;;0.63;0.63;;;;;;;8.43;62.04;102357.22;15653350;28;20068;-51
2023/05/18 04:26:47;;;;;;;4.55;0.15;;;;;;;8.40;62.38;102366.41;15650393;28;20068;-51
2023/05/18 04:34:25;;;;;;;0.40;0.40;;;;;;;8.36;62.31;102364.16;15648858;28;20033;-50
2023/05/18 04:42:05;;;;;;;1.45;0.65;;;;;;;8.65;61.26;102375.44;15651894;28;20059;-54
2023/05/18 04:49:42;;;;;;;0.17;0.15;;;;;;;9.12;60.07;102376.88;15668729;28;20037;-51
2023/05/18 04:57:15;;;;;;;0.60;0.38;;;;;;;8.93;60.72;102381.47;15650134;28;20103;-52
2023/05/18 05:04:49;;;;;;;0.47;0.40;;;;;;;9.74;58.41;102381.91;15650992;28;20055;-49
2023/05/18 05:12:22;;;;;;;3.30;0.57;;;;;;;9.55;59.01;102375.84;15647494;28;20401;-47
2023/05/18 05:19:59;;;;;;;0.67;0.63;;;;;;;9.84;58.29;102387.97;15649294;28;20071;-55
2023/05/18 05:27:33;;;;;;;0.47;0.43;;;;;;;10.68;56.49;102389.56;15650211;28;20549;-51
2023/05/18 05:35:10;;;;;;;1.58;1.05;;;;;;;11.01;55.42;102386.78;15648085;28;20435;-50
2023/05/18 05:42:43;;;;;;;0.73;0.52;;;;;;;11.53;54.79;102403.19;15647967;28;20148;-50
2023/05/18 05:50:17;;;;;;;9.82;0.65;;;;;;;13.27;49.77;102406.81;15644596;28;20040;-52
2023/05/18 05:57:53;;;;;;;5.97;0.57;;;;;;;12.75;51.40;102414.94;15647396;28;20036;-52
2023/05/18 06:05:30;;;;;;;0.93;0.73;;;;;;;15.35;44.50;102409.34;15633068;28;20053;-54
2023/05/18 06:13:06;;;;;;;2.20;0.57;;;;;;;14.88;44.23;102413.66;15660399;28;20040;-54
2023/05/18 06:20:55;;;;;;;0.77;0.50;;;;;;;14.72;44.40;102411.22;15645666;28;20556;-54
2023/05/18 06:28:30;;;;;;;1.17;0.68;;;;;;;15.00;44.11;102413.91;15661938;28;20036;-52
2023/05/18 06:36:18;;;;;;;1.10;0.75;;;;;;;14.28;46.00;102415.84;15632760;28;20041;-51
2023/05/18 06:43:55;;;;;;;0.10;0.00;;;;;;;14.83;45.51;102418.81;15637513;28;20362;-50
2023/05/18 06:51:42;;;;;;;6.82;0.43;;;;;;;14.76;43.25;102416.06;15674942;28;20045;-55
2023/05/18 06:59:17;;;;;;;0.47;0.47;;;;;;;16.28;41.48;102413.16;15656509;28;20033;-54
2023/05/18 07:06:52;;;;;;;0.95;0.43;;;;;;;15.99;40.68;102408.09;15655399;28;20445;-52
2023/05/18 07:14:25;;;;;;;0.10;0.10;;;;;;;16.87;38.39;102402.53;15654138;28;20045;-49
2023/05/18 07:21:59;;;;;;;0.75;0.45;;;;;;;17.57;36.78;102390.78;15636796;28;20049;-47
2023/05/18 07:29:32;;;;;;;1.33;0.47;;;;;;;20.28;34.25;102389.03;15673556;22;20044;-52
2023/05/18 07:37:06;;;;;;;1.75;0.13;;;;;;;18.79;34.28;102399.59;15681058;28;20446;-55
2023/05/18 07:44:41;;;;;;;1.27;0.65;;;;;;;18.61;33.73;102397.63;15680148;28;20124;-48
2023/05/18 07:52:18;;;;;;;5.55;0.60;;;;;;;18.77;34.50;102395.41;15658077;28;20060;-49
2023/05/18 07:59:58;;;;;;;0.57;0.22;;;;;;;18.30;35.25;102393.09;15661364;28;20037;-51
2023/05/18 08:07:32;;;;;;;0.05;0.05;;;;;;;16.76;38.15;102407.53;15679236;28;20041;-53
2023/05/18 08:15:06;;;;;;;0.20;0.20;;;;;;;16.52;38.48;102405.47;15669634;28;20513;-50
2023/05/18 08:22:42;;;;;;;0.95;0.47;;;;;;;15.99;40.68;102414.38;15661955;28;20080;-51
2023/05/18 08:30:20;;;;;;;0.05;0.05;;;;;;;16.09;39.83;102411.28;15669548;28;20453;-51
2023/05/18 08:37:55;;;;;;;12.13;0.57;;;;;;;15.63;41.41;102411.94;15669306;28;20036;-53
2023/05/18 08:45:36;;;;;;;0.47;0.47;;;;;;;15.96;41.16;102400.41;15646688;28;20049;-50
2023/05/18 08:53:11;;;;;;;0.20;0.20;;;;;;;16.65;36.96;102404.63;15642698;28;20045;-50
2023/05/18 09:00:44;;;;;;;3.35;0.68;;;;;;;16.33;37.26;102409.84;15674077;28;20047;-49
2023/05/18 09:08:18;;;;;;;1.05;0.35;;;;;;;15.84;37.71;102418.28;15670412;28;20413;-49
2023/05/18 09:15:54;;;;;;;0.32;0.20;;;;;;;16.90;39.74;102405.66;15672256;28;20442;-51
2023/05/18 09:23:31;;;;;;;10.25;0.93;;;;;;;18.22;34.89;102395.25;15653256;28;20049;-51
2023/05/18 09:31:11;;;;;;;0.85;0.60;;;;;;;18.46;36.63;102388.13;15641333;28;20040;-53
2023/05/18 09:38:46;;;;;;;0.55;0.38;;;;;;;17.53;35.79;102386.88;15666153;28;20087;-52
2023/05/18 09:46:20;;;;;;;0.50;0.35;;;;;;;16.81;36.26;102383.34;15642012;28;20083;-50
2023/05/18 09:53:56;;;;;;;5.63;0.63;;;;;;;17.26;34.23;102380.72;15632655;28;20592;-50
2023/05/18 10:01:29;;;;;;;1.42;0.95;;;;;;;17.03;37.10;102373.06;15653500;28;20044;-51
2023/05/18 10:09:16;;;;;;;0.80;0.50;;;;;;;18.16;33.05;102369.78;15636554;28;20041;-51
2023/05/18 10:16:51;;;;;;;0.35;0.20;;;;;;;18.93;31.29;102361.34;15615110;28;20509;-56
2023/05/18 10:24:26;;;;;;;0.57;0.30;;;;;;;18.25;34.65;102357.59;15626879;28;20041;-51
2023/05/18 10:32:02;;;;;;;0.15;0.15;;;;;;;19.88;33.68;102356.97;15640200;28;20049;-52
2023/05/18 10:39:36;;;;;;;0.60;0.30;;;;;;;19.01;32.76;102352.88;15648869;28;20052;-55
2023/05/18 10:47:11;;;;;;;1.38;0.50;;;;;;;19.98;30.30;102341.94;15646057;28;20041;-51
2023/05/18 10:54:46;;;;;;;0.40;0.32;;;;;;;19.94;31.90;102335.31;15670033;28;20052;-49
2023/05/18 11:02:24;;;;;;;1.10;0.20;;;;;;;19.50;30.43;102324.63;15642423;28;20469;-51
2023/05/18 11:10:01;;;;;;;0.65;0.30;;;;;;;18.97;33.76;102332.63;15672010;28;20618;-53
2023/05/18 11:17:34;;;;;;;1.27;0.57;;;;;;;18.24;32.31;102327.91;15670576;28;20079;-51
2023/05/18 11:25:09;;;;;;;;;;;;;;;19.15;33.30;102324.44;15671739;28;20045;-49
2023/05/18 11:32:51;;;;;;;1.75;0.50;;;;;;;18.57;33.15;102324.88;15662224;28;19932;-51
2023/05/18 11:40:47;;;;;;;0.22;0.20;;;;;;;19.22;32.89;102313.47;15669046;28;20041;-50
2023/05/18 11:48:22;;;;;;;0.45;0.40;;;;;;;19.61;31.24;102312.13;15645569;28;20115;-53
2023/05/18 11:55:56;;;;;;;4.55;0.57;;;;;;;19.74;32.14;102317.38;15672610;28;20041;-52
2023/05/18 12:03:31;;;;;;;0.45;0.25;;;;;;;20.63;27.88;102311.91;15652317;28;20112;-54
2023/05/18 12:11:08;;;;;;;0.47;0.35;;;;;;;19.90;29.90;102307.69;15669441;28;20103;-53
2023/05/18 12:18:41;;;;;;;1.65;0.25;;;;;;;19.88;30.35;102304.38;15650905;28;20080;-53
2023/05/18 12:26:18;;;;;;;;;;;;;;;19.49;31.42;102305.75;15668386;28;20625;-51
2023/05/18 12:33:52;;;;;;;1.15;0.47;;;;;;;18.60;31.64;102299.94;15649528;28;19968;-50
2023/05/18 12:41:27;;;;;;;0.10;0.10;;;;;;;19.93;30.01;102290.03;15671408;28;20047;-50
2023/05/18 12:49:03;;;;;;;0.50;0.20;;;;;;;20.11;28.76;102287.22;15666490;28;20536;-52
2023/05/18 12:56:58;;;;;;;0.30;0.30;;;;;;;22.40;26.37;102285.38;15649027;28;20575;-50
2023/05/18 13:04:36;;;;;;;0.32;0.20;;;;;;;21.63;27.85;102286.84;15664257;28;20033;-53
2023/05/18 13:12:14;;;;;;;0.17;0.10;;;;;;;19.58;28.54;102279.84;15642163;28;20037;-52
2023/05/18 13:19:47;;;;;;;0.88;0.52;;;;;;;19.02;29.29;102275.63;15665120;28;20457;-49
2023/05/18 13:27:23;;;;;;;3.47;0.50;;;;;;;20.09;32.48;102267.53;15649005;28;20130;-51
2023/05/18 13:34:56;;;;;;;0.13;0.10;;;;;;;18.81;29.94;102269.59;15625045;28;20489;-51
2023/05/18 13:42:34;;;;;;;0.10;0.10;;;;;;;18.18;31.71;102269.81;15650736;28;20506;-49
2023/05/18 13:50:08;;;;;;;0.30;0.30;;;;;;;19.77;29.85;102256.97;15665025;28;20049;-50
2023/05/18 13:57:44;;;;;;;0.10;0.10;;;;;;;19.27;29.92;102248.28;15664243;28;20059;-50
2023/05/18 14:05:19;;;;;;;0.30;0.30;;;;;;;19.34;32.95;102243.56;15663428;28;20491;-50
2023/05/18 14:12:57;;;;;;;1.02;0.20;;;;;;;19.66;29.95;102238.69;15662530;28;20599;-50
2023/05/18 14:20:30;;;;;;;0.20;0.20;;;;;;;18.88;30.49;102236.84;15636960;28;20525;-55
2023/05/18 14:28:04;;;;;;;4.55;0.60;;;;;;;18.21;31.00;102246.81;15676046;22;20131;-49
2023/05/18 14:35:38;;;;;;;0.90;0.30;;;;;;;17.92;30.52;102243.75;15745217;28;20051;-51
2023/05/18 14:43:12;;;;;;;4.00;0.70;;;;;;;18.12;31.41;102229.97;15795982;28;20354;-50
2023/05/18 14:50:45;;;;;;;1.23;0.70;;;;;;;17.68;32.42;102239.09;15820880;28;20042;-48
2023/05/18 14:58:20;;;;;;;1.50;0.70;;;;;;;17.90;31.80;102239.56;15806039;28;20104;-49
2023/05/18 15:05:52;;;;;;;1.58;0.73;;;;;;;17.91;30.94;102228.50;15787545;28;20119;-48
2023/05/18 15:13:26;;;;;;;4.25;2.15;;;;;;;18.39;31.26;102221.53;15809426;28;20101;-48
2023/05/18 15:20:59;;;;;;;2.35;1.15;;;;;;;18.00;32.90;102227.16;15804870;28;20051;-48
2023/05/18 15:28:37;;;;;;;0.95;0.70;;;;;;;18.88;33.70;102219.69;15799492;28;20052;-49
2023/05/18 15:36:12;;;;;;;1.35;0.95;;;;;;;18.21;31.63;102219.63;15790542;28;20044;-48
2023/05/18 15:43:46;;;;;;;1.13;0.82;;;;;;;18.29;32.73;102211.19;15796377;28;20059;-48
2023/05/18 15:51:19;;;;;;;0.47;0.40;;;;;;;17.92;31.76;102216.56;15789248;28;20060;-49
2023/05/18 15:58:53;;;;;;;;;;;;;;;17.68;33.10;102211.94;15784508;28;20089;-48
2023/05/18 16:06:26;;;;;;;2.65;0.88;;;;;;;18.26;33.15;102201.59;15807145;28;19998;-50
2023/05/18 16:14:00;;;;;;;0.22;0.20;;;;;;;17.69;33.88;102194.59;15815281;28;20040;-50
2023/05/18 16:21:33;;;;;;;0.63;0.50;;;;;;;17.28;33.06;102202.19;15774514;28;20143;-49
2023/05/18 16:29:10;;;;;;;0.17;0.17;;;;;;;17.48;33.84;102201.22;15821256;28;20566;-48
2023/05/18 16:36:42;;;;;;;1.25;0.45;;;;;;;17.42;34.50;102196.69;15785256;28;20068;-49
2023/05/18 16:44:16;;;;;;;0.00;0.00;;;;;;;16.75;33.83;102207.09;15798075;28;20044;-50
2023/05/18 16:51:50;;;;;;;1.42;0.50;;;;;;;16.83;33.83;102201.41;15789733;28;20485;-50
2023/05/18 16:59:24;;;;;;;0.22;0.10;;;;;;;16.83;34.58;102199.56;15790583;28;20044;-53
2023/05/18 17:06:58;;;;;;;0.38;0.28;;;;;;;16.92;34.38;102202.81;15815551;28;20048;-52
2023/05/18 17:14:32;;;;;;;4.23;0.60;;;;;;;16.61;34.26;102203.59;15801978;28;20120;-54
2023/05/18 17:22:08;;;;;;;0.80;0.50;;;;;;;16.79;34.28;102182.06;15823281;28;20624;-53
2023/05/18 17:29:42;;;;;;;0.30;0.30;;;;;;;16.73;34.62;102191.03;15813248;28;20052;-47
2023/05/18 17:37:15;;;;;;;1.55;0.60;;;;;;;16.65;34.85;102177.72;15848744;28;20457;-49
2023/05/18 17:44:50;;;;;;;2.97;0.52;;;;;;;16.71;36.03;102197.69;15809056;28;20135;-49
2023/05/18 17:52:23;;;;;;;2.40;0.65;;;;;;;16.76;34.48;102197.91;15778997;28;20093;-48
2023/05/18 18:00:00;;;;;;;0.10;0.10;;;;;;;16.53;35.15;102199.22;15794018;28;20037;-51
2023/05/18 18:07:35;;;;;;;0.22;0.22;;;;;;;16.81;35.98;102204.34;15792488;28;20044;-52
2023/05/18 18:15:21;;;;;;;0.98;0.45;;;;;;;15.90;36.30;102206.22;15794929;28;20043;-51
2023/05/18 18:22:53;;;;;;;0.52;0.38;;;;;;;16.64;37.51;102211.28;15837413;28;20043;-49
2023/05/18 18:30:28;;;;;;;0.73;0.32;;;;;;;16.68;38.30;102207.09;15789132;28;20065;-50
2023/05/18 18:38:00;;;;;;;1.55;0.65;;;;;;;16.68;38.55;102211.69;15804214;28;20063;-51
2023/05/18 18:45:34;;;;;;;0.50;0.25;;;;;;;16.44;39.64;102216.78;15830280;28;20495;-48
2023/05/18 18:53:07;;;;;;;1.85;0.77;;;;;;;16.24;40.40;102213.28;15837603;28;20052;-50
2023/05/18 19:00:41;;;;;;;5.37;2.57;;;;;;;16.04;39.89;102226.84;15828576;28;20040;-49
2023/05/18 19:08:15;;;;;;;1.60;0.82;;;;;;;15.64;42.09;102240.41;15845010;28;20500;-50
2023/05/18 19:15:50;;;;;;;;;;;;;;;15.30;44.64;102239.50;15770977;28;20043;-50
2023/05/18 19:23:22;;;;;;;0.68;0.55;;;;;;;15.00;43.96;102244.38;15835723;28;20312;-51
2023/05/18 19:30:56;;;;;;;0.70;0.70;;;;;;;14.75;43.19;102254.91;15801978;28;20063;-50
2023/05/18 19:38:29;;;;;;;3.22;1.23;;;;;;;14.66;44.05;102257.97;15830049;28;20044;-47
2023/05/18 19:46:03;;;;;;;2.25;1.10;;;;;;;14.48;44.68;102258.50;15770690;28;20497;-49
2023/05/18 19:53:36;;;;;;;1.55;1.02;;;;;;;14.30;45.02;102254.41;15813295;28;20074;-53
2023/05/18 20:01:10;;;;;;;3.10;1.47;;;;;;;14.11;45.67;102265.06;15825818;28;20048;-48
2023/05/18 20:08:44;;;;;;;2.47;1.13;;;;;;;13.99;46.21;102268.31;15810567;28;20040;-48
2023/05/18 20:16:18;;;;;;;0.60;0.52;;;;;;;13.40;48.08;102268.59;15779648;28;20118;-48
2023/05/18 20:23:51;;;;;;;1.02;0.73;;;;;;;13.51;47.88;102265.38;15810024;28;20408;-49
2023/05/18 20:31:25;;;;;;;1.43;1.23;;;;;;;13.34;47.80;102265.84;15705153;22;20475;-52
2023/05/18 20:39:02;;;;;;;1.25;0.90;;;;;;;13.01;49.35;102263.56;15582060;28;20132;-52
2023/05/18 20:46:40;;;;;;;5.88;2.15;;;;;;;12.39;49.90;102274.72;15612151;28;20119;-54
2023/05/18 20:54:14;;;;;;;2.42;1.17;;;;;;;12.27;50.14;102279.75;15659525;28;20068;-52
2023/05/18 21:01:49;;;;;;;2.10;0.90;;;;;;;12.34;50.92;102286.06;15639510;28;20430;-52
2023/05/18 21:09:22;;;;;;;2.47;0.75;;;;;;;12.11;52.11;102285.28;15637994;28;20037;-51
2023/05/18 21:16:59;;;;;;;0.73;0.70;;;;;;;12.22;52.51;102282.16;15626180;28;20313;-52
2023/05/18 21:24:31;;;;;;;0.20;0.20;;;;;;;12.11;52.66;102293.34;15613666;28;20054;-51
2023/05/18 21:32:06;;;;;;;0.20;0.13;;;;;;;12.17;52.70;102287.22;15604109;28;20048;-55
2023/05/18 21:39:40;;;;;;;0.20;0.20;;;;;;;11.94;53.16;102292.69;15629854;28;20380;-50
2023/05/18 21:47:15;;;;;;;0.50;0.43;;;;;;;12.04;52.83;102295.94;15616977;28;20498;-51
2023/05/18 21:54:47;;;;;;;0.20;0.20;;;;;;;11.61;54.14;102292.91;15628980;28;20041;-49
2023/05/18 22:02:22;;;;;;;0.50;0.50;;;;;;;12.29;52.99;102296.53;15589562;28;20143;-50
2023/05/18 22:09:54;;;;;;;0.47;0.45;;;;;;;12.18;53.20;102300.53;15621455;28;20425;-52
2023/05/18 22:17:29;;;;;;;;;;;;;;;12.41;52.36;102296.94;15601062;28;20054;-51
2023/05/18 22:25:02;;;;;;;2.28;0.25;;;;;;;11.50;54.22;102301.34;15626007;28;20347;-51
2023/05/18 22:32:39;;;;;;;1.10;0.50;;;;;;;11.85;53.58;102293.75;15598711;28;20065;-52
2023/05/18 22:40:13;;;;;;;0.40;0.20;;;;;;;11.54;54.16;102281.16;15597752;28;20347;-52
2023/05/18 22:47:47;;;;;;;;;;;;;;;11.48;54.44;102296.16;15597119;28;20069;-49
2023/05/18 22:55:20;;;;;;;5.05;0.63;;;;;;;11.62;54.29;102288.34;15603958;28;19928;-49
2023/05/18 23:02:55;;;;;;;1.97;1.20;;;;;;;11.41;54.45;102291.66;15602311;28;20099;-51
2023/05/18 23:10:28;;;;;;;1.27;0.77;;;;;;;11.42;54.43;102286.13;15606770;28;20498;-50
2023/05/18 23:18:02;;;;;;;8.43;0.77;;;;;;;11.47;54.19;102283.75;15568312;28;20438;-49
2023/05/18 23:25:35;;;;;;;4.03;0.85;;;;;;;10.99;54.91;102284.84;15658593;28;20068;-51
2023/05/18 23:33:10;;;;;;;0.60;0.17;;;;;;;11.16;54.94;102288.28;15647535;28;20053;-51
2023/05/18 23:40:43;;;;;;;1.75;0.38;;;;;;;10.79;55.67;102287.13;15626433;28;20145;-50
2023/05/18 23:48:18;;;;;;;1.63;0.35;;;;;;;11.29;54.11;102276.97;15608008;28;20041;-50
2023/05/18 23:55:59;;;;;;;0.75;0.55;;;;;;;10.81;55.76;102274.34;15633852;28;20095;-50
